Ardmore, OK

7:55 PM CDT on September 21, 2014 (GMT -0500)
Gainesville Municipal | Change Station
CLOSE
Current Station
Airport
Location: Gainesville,
Elevation: 840 ft
Nearby Weather Stations

Elev 840 ft 33.65 °N, 97.20 °W | Updated 20 minutes ago

Overcast
Overcast
81 °F
Feels Like 82 °F
N
12
Wind Variable Wind from NNE

Today
High -- | Low -- °F
--% Chance of Precip.
Yesterday
High -- | Low -- °F
Precip. -- in
7:15 AM 7:26 PM
Waning Crescent, 5% visible
Pressure 30.08 in
Visibility 10.0 miles
Clouds Clear
Heat Index 82 °F
Dew Point 64 °F
Humidity 57%
Rainfall 0.00 in
Snow Depth Not available.
UV 0 out of 12
Pollen 10.20 out of 12
Air Quality Not available.
Flu Activity Not available.
METAR KGLE 220035Z AUTO 02010KT 10SM CLR 27/18 A3008 RMK AO2 T02700178

More Conditions Fewer Conditions

Pressure 30.08 in
Visibility 10.0 miles
Clouds Clear
Heat Index 82 °F
Dew Point 64 °F
Humidity 57%
Rainfall 0.00 in
Snow Depth Not available.
UV 0 out of 12
Pollen 10.20 out of 12
Air Quality Not available.
Flu Activity Not available.
METAR KGLE 220035Z AUTO 02010KT 10SM CLR 27/18 A3008 RMK AO2 T02700178

More Conditions Fewer Conditions

10-Day Weather Forecast

Almanac

Astronomy

Sep. 21, 2014 Rise Set
Actual Time 7:15 AM CDT 7:26 PM CDT
Civil Twilight 6:50 AM CDT 7:51 PM CDT
Nautical Twilight 6:21 AM CDT 8:20 PM CDT
Astronomical Twilight 5:52 AM CDT 8:50 PM CDT
Moon 4:55 AM CDT (9/21) 5:59 PM CDT (9/21)
Length of Visible Light 13h 00m
Length of Day
12h 10m
Tomorrow will be 2m 6s shorter.
Waning Crescent, 5% of the Moon is Illuminated
Today
Waning Crescent
Sep 24
New
Oct 1
First Quarter
Oct 8
Full
Oct 15
Last Quarter

Today's Extremes

State Highs State Lows

Community

WunderPhotos

Upload Photos

1,755,316 photos uploaded!

WunderBlogs® & News

Nearby

Snow Depth

Station Depth Elevation
No new snow has been reported.

Earthquake Activity

City Distance Mag. Time & Date
Luther, Oklahoma 104 miles 2.7 4:47 PM CDT
2014-09-19
Guthrie, Oklahoma 115 miles 3.6 12:23 PM CDT
2014-09-19
Jones, Oklahoma 98 miles 2.8 1:13 AM CDT
2014-09-19
Guthrie, Oklahoma 116 miles 3.0 7:08 PM CDT
2014-09-18
Minimum magnitude displayed is 2.5.

Coastal Water Temperatures

Place Temperature
No Stations Reporting

Nearby Weather Stations